Time;durP1;ratioP1;P1;durP2;ratioP2;P2;SDS_P1;SDS_P2;PMS_P1;PMS_P2;Temp;Humidity;BMP_temperature;BMP_pressure;BME280_temperature;BME280_humidity;BME280_pressure;Samples;Min_cycle;Max_cycle;Signal;HPM_P1;HPM_P2
2022/11/21 00:00:15;;;;;;;19.75;19.05;;;3.70;99.90;;;;;;5033801;28;20024;-73
2022/11/21 00:02:40;;;;;;;19.30;18.60;;;3.70;99.90;;;;;;5023636;28;20026;-73
2022/11/21 00:05:06;;;;;;;18.58;17.88;;;3.70;99.90;;;;;;5028796;28;20488;-73
2022/11/21 00:07:32;;;;;;;18.90;18.17;;;3.80;99.90;;;;;;5015337;28;20037;-73
2022/11/21 00:09:58;;;;;;;17.20;16.60;;;3.80;99.90;;;;;;5015695;28;20037;-75
2022/11/21 00:12:23;;;;;;;18.42;17.73;;;3.80;99.90;;;;;;5035068;28;20021;-75
2022/11/21 00:14:49;;;;;;;16.77;16.17;;;3.80;99.90;;;;;;5035057;28;20121;-74
2022/11/21 00:17:15;;;;;;;18.40;17.70;;;3.80;99.90;;;;;;5034900;28;20124;-75
2022/11/21 00:19:40;;;;;;;17.85;17.20;;;3.80;99.90;;;;;;5035066;28;20060;-75
2022/11/21 00:22:06;;;;;;;18.30;17.60;;;3.80;99.90;;;;;;5035030;28;20025;-75
2022/11/21 00:24:31;;;;;;;23.83;22.85;;;3.80;99.90;;;;;;5034871;28;20041;-74
2022/11/21 00:26:57;;;;;;;19.10;18.40;;;3.90;99.90;;;;;;5034838;28;20029;-75
2022/11/21 00:29:22;;;;;;;18.85;18.15;;;3.90;99.90;;;;;;5017116;28;20037;-75
2022/11/21 00:31:48;;;;;;;20.27;19.50;;;4.00;99.90;;;;;;5034845;28;20033;-74
2022/11/21 00:34:15;;;;;;;19.90;19.20;;;4.10;99.90;;;;;;5034733;28;20017;-75
2022/11/21 00:36:41;;;;;;;19.02;18.33;;;4.10;99.90;;;;;;5034775;28;20022;-74
2022/11/21 00:39:06;;;;;;;18.58;17.88;;;4.10;99.90;;;;;;5034467;28;20563;-75
2022/11/21 00:41:32;;;;;;;22.33;21.52;;;4.20;99.90;;;;;;5034622;28;20104;-74
2022/11/21 00:43:58;;;;;;;16.88;16.27;;;4.30;99.90;;;;;;5034713;28;20112;-75
2022/11/21 00:46:23;;;;;;;20.70;19.92;;;4.30;99.90;;;;;;5034586;28;20072;-74
2022/11/21 00:48:49;;;;;;;21.30;20.50;;;4.30;99.90;;;;;;5034263;28;20034;-75
2022/11/21 00:51:14;;;;;;;24.73;23.35;;;4.30;99.90;;;;;;5034366;28;20057;-74
2022/11/21 00:53:40;;;;;;;21.63;20.60;;;4.30;99.90;;;;;;5034261;28;20515;-75
2022/11/21 00:56:06;;;;;;;23.75;22.83;;;4.30;99.90;;;;;;5016630;28;20431;-75
2022/11/21 00:58:31;;;;;;;23.23;22.33;;;4.40;99.90;;;;;;5034159;28;20025;-75
2022/11/21 01:01:12;;;;;;;19.00;18.30;;;4.40;99.90;;;;;;5024796;28;20492;-74
2022/11/21 01:03:39;;;;;;;21.05;20.25;;;4.40;99.90;;;;;;5032425;28;20499;-75
2022/11/21 01:06:08;;;;;;;20.27;19.52;;;4.40;99.90;;;;;;5016478;28;20114;-75
2022/11/21 01:08:35;;;;;;;20.75;19.95;;;4.40;99.90;;;;;;5033660;28;20022;-75
2022/11/21 01:11:03;;;;;;;20.75;19.95;;;4.50;99.90;;;;;;5034188;28;20022;-76
2022/11/21 01:13:28;;;;;;;25.08;24.08;;;4.40;99.90;;;;;;5003270;28;20026;-75
2022/11/21 01:15:54;;;;;;;23.92;23.02;;;4.50;99.90;;;;;;5034131;28;20033;-76
2022/11/21 01:18:19;;;;;;;21.42;20.63;;;4.50;99.90;;;;;;5033844;28;20025;-76
2022/11/21 01:20:45;;;;;;;22.10;21.30;;;4.50;99.90;;;;;;5016285;28;20014;-76
2022/11/21 01:23:10;;;;;;;16.90;16.30;;;4.50;99.90;;;;;;5033789;28;20589;-77
2022/11/21 01:25:36;;;;;;;22.73;21.88;;;4.60;99.90;;;;;;5016099;28;20057;-76
2022/11/21 01:28:01;;;;;;;18.90;18.10;;;4.50;99.90;;;;;;5026971;28;20030;-75
2022/11/21 01:30:27;;;;;;;19.00;18.30;;;4.70;99.90;;;;;;5027084;28;20079;-75
2022/11/21 01:32:52;;;;;;;18.77;18.05;;;4.70;99.90;;;;;;5013828;28;20527;-76
2022/11/21 01:35:18;;;;;;;25.83;24.65;;;4.70;99.90;;;;;;5027251;28;20503;-76
2022/11/21 01:37:47;;;;;;;21.10;20.10;;;4.80;99.90;;;;;;5020444;28;20498;-76
2022/11/21 01:40:13;;;;;;;20.83;20.02;;;4.80;99.90;;;;;;5020147;28;20087;-76
2022/11/21 01:42:53;;;;;;;24.75;23.75;;;4.80;99.90;;;;;;5008847;28;20095;-75
2022/11/21 01:45:57;;;;;;;18.58;17.88;;;4.80;99.90;;;;;;5015580;28;20176;-75
2022/11/21 01:48:47;;;;;;;19.42;18.73;;;4.70;99.90;;;;;;5019473;28;20026;-76
2022/11/21 01:51:38;;;;;;;21.52;20.73;;;4.70;99.90;;;;;;4983836;28;20033;-75
2022/11/21 01:54:13;;;;;;;22.83;21.60;;;4.70;99.90;;;;;;5033251;28;20029;-75
2022/11/21 01:56:48;;;;;;;20.17;18.97;;;4.80;99.90;;;;;;5015455;28;20022;-75
2022/11/21 01:59:20;;;;;;;21.27;20.48;;;4.80;99.90;;;;;;5033289;28;20252;-74
2022/11/21 02:01:47;;;;;;;19.60;18.85;;;4.80;99.90;;;;;;5033161;28;20488;-74
2022/11/21 02:04:13;;;;;;;20.05;19.25;;;4.80;99.90;;;;;;5032988;28;20026;-75
2022/11/21 02:06:40;;;;;;;20.67;19.88;;;4.80;99.90;;;;;;5033198;28;20140;-75
2022/11/21 02:09:06;;;;;;;22.15;21.25;;;4.80;99.90;;;;;;5032986;28;20452;-75
2022/11/21 02:11:38;;;;;;;18.98;18.27;;;4.90;99.90;;;;;;5015129;28;20029;-75
2022/11/21 02:14:04;;;;;;;19.55;18.85;;;4.80;99.90;;;;;;5032826;28;20022;-74
2022/11/21 02:16:30;;;;;;;18.95;18.25;;;4.80;99.90;;;;;;5032910;28;20051;-74
2022/11/21 02:18:55;;;;;;;17.83;17.20;;;4.80;99.90;;;;;;5031990;28;20026;-73
2022/11/21 02:21:48;;;;;;;21.13;20.25;;;4.80;99.90;;;;;;5032808;28;20368;-75
2022/11/21 02:24:44;;;;;;;19.33;18.58;;;4.80;99.90;;;;;;5017238;28;20105;-76
2022/11/21 02:27:10;;;;;;;19.35;18.65;;;4.90;99.90;;;;;;5025683;28;20076;-75
2022/11/21 02:29:37;;;;;;;20.90;20.10;;;4.80;99.90;;;;;;5032618;28;20033;-75
2022/11/21 02:32:06;;;;;;;20.38;19.58;;;4.80;99.90;;;;;;5032608;28;20080;-75
2022/11/21 02:34:32;;;;;;;17.15;16.52;;;4.90;99.90;;;;;;5012874;28;20040;-75
2022/11/21 02:37:00;;;;;;;17.38;16.77;;;4.90;99.90;;;;;;5012682;28;20030;-75
2022/11/21 02:39:34;;;;;;;21.25;20.45;;;4.80;99.90;;;;;;5019390;28;20464;-74
2022/11/21 02:42:08;;;;;;;20.58;19.58;;;4.80;99.90;;;;;;5032396;28;20045;-75
2022/11/21 02:45:02;;;;;;;15.68;15.07;;;4.90;99.90;;;;;;5032336;28;20030;-75
2022/11/21 02:47:29;;;;;;;20.25;19.50;;;4.90;99.90;;;;;;5018923;28;20537;-75
2022/11/21 02:50:01;;;;;;;21.17;20.30;;;4.80;99.90;;;;;;5019877;28;20478;-74
2022/11/21 02:52:26;;;;;;;18.85;18.15;;;4.80;99.90;;;;;;5032174;28;20029;-74
2022/11/21 02:54:52;;;;;;;17.85;17.15;;;4.80;99.90;;;;;;5032120;28;20029;-74
2022/11/21 02:57:18;;;;;;;18.77;18.08;;;4.80;99.90;;;;;;5032037;28;20450;-74
2022/11/21 02:59:43;;;;;;;17.70;17.08;;;4.80;99.90;;;;;;5032008;28;20527;-74
2022/11/21 03:02:09;;;;;;;18.73;18.02;;;4.80;99.90;;;;;;5032170;28;20030;-74
2022/11/21 03:04:34;;;;;;;16.67;16.08;;;4.80;99.90;;;;;;5031876;28;20036;-74
2022/11/21 03:07:00;;;;;;;16.02;15.43;;;4.80;99.90;;;;;;5031840;28;20039;-75
2022/11/21 03:09:25;;;;;;;18.85;18.15;;;4.90;99.90;;;;;;5031971;28;20033;-74
2022/11/21 03:11:51;;;;;;;15.40;14.85;;;4.80;99.90;;;;;;5031859;28;20068;-74
2022/11/21 03:14:16;;;;;;;17.63;17.02;;;4.80;99.90;;;;;;5031798;28;20026;-73
2022/11/21 03:16:42;;;;;;;17.92;17.23;;;4.90;99.90;;;;;;5031835;28;20026;-73
2022/11/21 03:19:07;;;;;;;16.65;16.05;;;4.90;99.90;;;;;;5031693;28;20046;-73
2022/11/21 03:21:33;;;;;;;15.38;14.70;;;5.00;99.90;;;;;;5031865;28;20026;-74
2022/11/21 03:23:58;;;;;;;16.70;16.10;;;4.90;99.90;;;;;;5031546;28;20052;-74
2022/11/21 03:26:24;;;;;;;23.88;22.98;;;4.90;99.90;;;;;;5031734;28;20049;-74
2022/11/21 03:28:49;;;;;;;18.02;17.35;;;4.80;99.90;;;;;;5031436;28;20624;-75
2022/11/21 03:31:15;;;;;;;18.70;18.00;;;4.80;99.90;;;;;;5062814;23;20038;-73
2022/11/21 03:33:40;;;;;;;16.77;16.17;;;4.80;99.90;;;;;;5047520;28;20047;-73
2022/11/21 03:36:06;;;;;;;19.10;18.40;;;4.70;99.90;;;;;;5057821;28;20070;-74
2022/11/21 03:38:31;;;;;;;16.92;16.30;;;4.70;99.90;;;;;;5057928;28;20032;-74
2022/11/21 03:41:02;;;;;;;20.90;20.10;;;4.70;99.90;;;;;;5042104;28;20030;-73
2022/11/21 03:43:28;;;;;;;18.38;17.50;;;4.70;99.90;;;;;;5018428;28;20036;-73
2022/11/21 03:45:53;;;;;;;17.17;16.58;;;4.70;99.90;;;;;;5014036;28;20112;-74
2022/11/21 03:48:19;;;;;;;18.88;18.17;;;4.70;99.90;;;;;;5031480;28;20542;-73
2022/11/21 03:50:44;;;;;;;22.23;21.35;;;4.70;99.90;;;;;;5013779;28;20398;-73
2022/11/21 03:53:10;;;;;;;15.48;14.88;;;4.80;99.90;;;;;;5031485;28;20057;-75
2022/11/21 03:55:35;;;;;;;17.63;16.98;;;4.80;99.90;;;;;;5031482;28;20475;-75
2022/11/21 03:58:01;;;;;;;15.82;15.23;;;4.80;99.90;;;;;;5031282;28;20398;-74
2022/11/21 04:00:26;;;;;;;19.23;18.52;;;4.80;99.90;;;;;;5006942;28;20376;-75
2022/11/21 04:02:52;;;;;;;17.58;16.98;;;4.80;99.90;;;;;;5024913;28;20033;-74
2022/11/21 04:05:17;;;;;;;19.25;18.40;;;4.90;99.90;;;;;;5018262;28;20032;-74
2022/11/21 04:07:44;;;;;;;16.23;15.63;;;4.80;99.90;;;;;;5018438;28;20498;-74
2022/11/21 04:10:10;;;;;;;14.02;13.48;;;4.80;99.90;;;;;;5024963;28;20030;-73
2022/11/21 04:12:35;;;;;;;15.35;14.80;;;4.80;99.90;;;;;;5023012;28;20030;-72
2022/11/21 04:15:01;;;;;;;23.15;22.23;;;4.80;99.90;;;;;;5031346;28;20059;-74
2022/11/21 04:17:26;;;;;;;17.02;16.33;;;4.90;99.90;;;;;;5031148;28;20021;-73
2022/11/21 04:19:52;;;;;;;19.48;18.73;;;4.80;99.90;;;;;;5031175;28;20113;-74
2022/11/21 04:22:17;;;;;;;18.25;17.52;;;4.80;99.90;;;;;;5018502;28;20029;-73
2022/11/21 04:24:43;;;;;;;16.83;16.08;;;4.80;99.90;;;;;;5006957;28;20385;-73
2022/11/21 04:27:08;;;;;;;22.58;21.42;;;4.80;99.90;;;;;;5024152;28;20026;-73
2022/11/21 04:29:34;;;;;;;14.35;13.85;;;4.70;99.90;;;;;;5031226;28;20029;-73
2022/11/21 04:31:59;;;;;;;12.50;11.90;;;4.70;99.90;;;;;;5018579;28;20492;-73
2022/11/21 04:34:25;;;;;;;17.63;16.98;;;4.70;99.90;;;;;;4993921;28;20110;-73
2022/11/21 04:36:50;;;;;;;17.83;16.98;;;4.80;99.90;;;;;;5005915;28;20021;-74
2022/11/21 04:39:16;;;;;;;16.70;15.82;;;4.80;99.90;;;;;;5031358;28;20021;-75
2022/11/21 04:41:41;;;;;;;14.30;13.80;;;4.70;99.90;;;;;;5013407;28;20398;-74
2022/11/21 04:44:07;;;;;;;17.17;16.42;;;4.80;99.90;;;;;;5034620;28;20542;-75
2022/11/21 04:46:32;;;;;;;14.77;14.25;;;4.70;99.90;;;;;;5004624;28;20116;-75
2022/11/21 04:48:58;;;;;;;15.73;14.90;;;4.70;99.90;;;;;;5010161;28;20052;-74
2022/11/21 04:51:24;;;;;;;17.52;16.17;;;4.70;99.90;;;;;;5026864;28;20025;-75
2022/11/21 04:53:49;;;;;;;20.65;19.65;;;4.70;99.90;;;;;;5021242;28;20041;-73
2022/11/21 04:56:15;;;;;;;13.90;13.40;;;4.80;99.90;;;;;;5034474;28;20075;-73
2022/11/21 04:58:43;;;;;;;16.05;15.45;;;4.80;99.90;;;;;;5034386;28;20067;-73
2022/11/21 05:01:09;;;;;;;15.73;15.13;;;4.70;99.90;;;;;;5034481;28;20013;-73
2022/11/21 05:03:35;;;;;;;17.38;16.52;;;4.70;99.90;;;;;;5047499;28;20489;-73
2022/11/21 05:06:01;;;;;;;14.00;13.50;;;4.70;99.90;;;;;;5016597;28;20075;-74
2022/11/21 05:08:26;;;;;;;19.67;18.88;;;4.80;99.90;;;;;;5034056;28;20100;-73
2022/11/21 05:13:36;;;;;;;17.15;16.50;;;4.70;99.90;;;;;;5034416;28;20469;-74
2022/11/21 05:16:02;;;;;;;16.52;15.93;;;4.70;99.90;;;;;;5016797;28;20057;-74
2022/11/21 05:18:27;;;;;;;14.98;14.48;;;4.70;99.90;;;;;;5034507;28;20029;-74
2022/11/21 05:20:53;;;;;;;13.00;12.40;;;4.70;99.90;;;;;;5033996;28;20021;-74
2022/11/21 05:23:18;;;;;;;16.17;15.57;;;4.80;99.90;;;;;;5034209;28;20041;-79
2022/11/21 05:25:44;;;;;;;17.80;16.30;;;4.80;99.90;;;;;;5033888;28;20025;-75
2022/11/21 05:28:09;;;;;;;18.88;18.10;;;4.80;99.90;;;;;;5027697;28;20033;-74
2022/11/21 05:30:36;;;;;;;16.45;15.85;;;4.80;99.90;;;;;;5010306;28;20042;-74
2022/11/21 05:33:02;;;;;;;14.43;13.82;;;4.80;99.90;;;;;;5021583;28;20060;-73
2022/11/21 05:35:27;;;;;;;16.65;16.05;;;4.80;99.90;;;;;;5033876;28;20106;-73
2022/11/21 05:37:57;;;;;;;21.98;20.92;;;4.80;99.90;;;;;;5026300;28;20037;-74
2022/11/21 05:40:23;;;;;;;15.95;15.25;;;4.80;99.90;;;;;;5010453;28;20116;-73
2022/11/21 05:45:32;;;;;;;18.27;17.38;;;4.80;99.90;;;;;;5033829;28;20079;-73
2022/11/21 05:47:58;;;;;;;20.85;19.77;;;4.80;99.90;;;;;;5033373;28;20030;-73
2022/11/21 05:50:23;;;;;;;17.65;17.00;;;4.80;99.90;;;;;;5020283;28;20172;-73
2022/11/21 05:52:49;;;;;;;14.18;13.68;;;4.70;99.90;;;;;;5033311;28;20095;-74
2022/11/21 05:55:14;;;;;;;15.32;14.73;;;4.80;99.90;;;;;;5032216;28;20530;-73
2022/11/21 05:57:40;;;;;;;17.63;16.95;;;4.60;99.90;;;;;;5033225;28;20494;-73
2022/11/21 06:00:06;;;;;;;13.85;12.68;;;4.80;99.90;;;;;;5033413;28;20577;-74
2022/11/21 06:05:15;;;;;;;16.27;15.65;;;4.80;99.90;;;;;;5033477;28;20398;-74
2022/11/21 06:07:41;;;;;;;18.63;17.92;;;4.70;99.90;;;;;;5015119;28;20033;-73
2022/11/21 06:10:07;;;;;;;17.63;17.02;;;4.70;99.90;;;;;;5032907;28;20037;-74
2022/11/21 06:12:32;;;;;;;17.13;16.52;;;4.70;99.90;;;;;;5033040;28;20026;-74
2022/11/21 06:14:58;;;;;;;20.20;19.40;;;4.70;99.90;;;;;;5015277;28;20029;-73
2022/11/21 06:17:23;;;;;;;21.25;20.30;;;4.80;99.90;;;;;;5015166;28;20475;-74
2022/11/21 06:19:49;;;;;;;19.23;18.52;;;4.70;99.90;;;;;;5032777;28;20026;-74
2022/11/21 06:22:14;;;;;;;19.20;18.42;;;4.80;99.90;;;;;;5032862;28;20025;-73
2022/11/21 06:24:40;;;;;;;22.13;21.33;;;4.70;99.90;;;;;;5033433;28;20109;-76
2022/11/21 06:27:05;;;;;;;18.40;17.70;;;4.70;99.90;;;;;;5032899;28;20368;-73
2022/11/21 06:29:31;;;;;;;20.08;18.85;;;4.70;99.90;;;;;;5014737;28;20029;-73
2022/11/21 06:31:56;;;;;;;18.40;17.70;;;4.70;99.90;;;;;;5032425;28;20029;-73
2022/11/21 06:34:25;;;;;;;22.08;21.27;;;4.70;99.90;;;;;;5019436;28;20033;-74
2022/11/21 06:36:50;;;;;;;19.08;18.38;;;4.70;99.90;;;;;;5014620;28;20021;-73
2022/11/21 06:39:16;;;;;;;24.50;23.52;;;4.70;99.90;;;;;;5032489;28;20111;-74
2022/11/21 06:41:41;;;;;;;20.70;19.75;;;4.70;99.90;;;;;;5020865;28;20030;-74
2022/11/21 06:44:07;;;;;;;20.23;18.30;;;4.70;99.90;;;;;;5008138;28;20014;-74
2022/11/21 06:46:32;;;;;;;20.83;19.92;;;4.70;99.90;;;;;;5006638;28;20124;-74
2022/11/21 06:48:58;;;;;;;21.80;21.00;;;4.70;99.90;;;;;;5018733;28;20021;-74
2022/11/21 06:51:24;;;;;;;20.42;19.70;;;4.70;99.90;;;;;;5031411;28;20029;-74
2022/11/21 06:53:57;;;;;;;20.42;19.65;;;4.70;99.90;;;;;;5031981;28;20390;-74
2022/11/21 06:56:25;;;;;;;18.98;18.27;;;4.70;99.90;;;;;;5014649;28;20017;-74
2022/11/21 06:58:51;;;;;;;19.33;18.63;;;4.70;99.90;;;;;;5001105;28;20475;-74
2022/11/21 07:01:17;;;;;;;20.45;19.67;;;4.70;99.90;;;;;;5014393;28;20064;-74
2022/11/21 07:03:43;;;;;;;19.55;18.85;;;4.70;99.90;;;;;;5032208;28;20022;-74
2022/11/21 07:06:08;;;;;;;22.23;21.42;;;4.70;99.90;;;;;;5031826;28;20084;-76
2022/11/21 07:08:35;;;;;;;21.27;20.48;;;4.80;99.90;;;;;;5031970;28;20036;-74
2022/11/21 07:11:07;;;;;;;20.30;19.60;;;4.80;99.90;;;;;;5014541;28;20479;-75
2022/11/21 07:13:33;;;;;;;19.40;18.70;;;4.80;99.90;;;;;;5031967;28;20033;-74
2022/11/21 07:16:04;;;;;;;20.33;19.60;;;4.70;99.90;;;;;;5031920;28;20430;-73
2022/11/21 07:18:29;;;;;;;20.00;19.30;;;4.70;99.90;;;;;;5031737;28;20382;-73
2022/11/21 07:20:59;;;;;;;19.45;18.75;;;4.70;99.90;;;;;;5000973;28;20022;-74
2022/11/21 07:23:26;;;;;;;19.65;18.95;;;4.70;99.90;;;;;;5031862;28;20021;-74
2022/11/21 07:25:51;;;;;;;20.60;19.88;;;4.70;99.90;;;;;;5014071;28;20030;-75
2022/11/21 07:28:17;;;;;;;21.58;20.77;;;4.60;99.90;;;;;;5031586;28;20541;-73
2022/11/21 07:30:42;;;;;;;19.58;18.88;;;4.60;99.90;;;;;;5031518;28;20479;-73
2022/11/21 07:33:08;;;;;;;21.25;20.45;;;4.60;99.90;;;;;;5031524;28;20037;-75
2022/11/21 07:35:34;;;;;;;23.42;22.42;;;4.60;99.90;;;;;;5031505;28;20022;-74
2022/11/21 07:38:01;;;;;;;22.08;21.27;;;4.70;99.90;;;;;;5031498;28;20092;-74
2022/11/21 07:40:27;;;;;;;21.25;20.45;;;4.60;99.90;;;;;;5018007;28;20029;-74
2022/11/21 07:42:53;;;;;;;19.20;18.50;;;4.60;99.90;;;;;;5022415;28;20026;-74
2022/11/21 07:45:19;;;;;;;18.98;18.27;;;4.70;99.90;;;;;;5025120;28;20036;-74
2022/11/21 07:47:44;;;;;;;21.90;20.60;;;4.60;99.90;;;;;;5020524;28;20726;-75
2022/11/21 07:50:11;;;;;;;18.95;18.25;;;4.60;99.90;;;;;;5013441;28;20103;-74
2022/11/21 07:52:37;;;;;;;30.95;24.88;;;4.60;99.90;;;;;;5013450;28;20434;-74
2022/11/21 07:55:04;;;;;;;20.98;20.17;;;4.70;99.90;;;;;;5014688;28;20022;-74
2022/11/21 07:57:31;;;;;;;20.92;20.02;;;4.60;99.90;;;;;;5031622;28;20017;-74
2022/11/21 07:59:57;;;;;;;18.80;18.10;;;4.60;99.90;;;;;;5013657;28;20033;-74
2022/11/21 08:02:24;;;;;;;21.00;20.10;;;4.60;99.90;;;;;;5013763;28;20021;-74
2022/11/21 08:04:50;;;;;;;19.27;18.50;;;4.60;99.90;;;;;;5031372;28;20032;-74
2022/11/21 08:07:18;;;;;;;18.65;17.95;;;4.70;99.90;;;;;;5013296;28;20116;-74
2022/11/21 08:09:43;;;;;;;23.50;21.75;;;4.60;99.90;;;;;;5031225;28;20021;-73
2022/11/21 08:12:10;;;;;;;18.30;17.60;;;4.70;99.90;;;;;;5031074;28;20079;-74
2022/11/21 08:14:36;;;;;;;21.33;19.85;;;4.70;99.90;;;;;;5017861;28;20046;-73
2022/11/21 08:17:03;;;;;;;22.42;21.58;;;4.70;99.90;;;;;;5031505;28;20104;-74
2022/11/21 08:19:28;;;;;;;21.33;20.50;;;4.70;99.90;;;;;;5035090;28;20021;-74
2022/11/21 08:21:54;;;;;;;19.40;18.60;;;4.80;99.90;;;;;;5035008;28;20029;-74
2022/11/21 08:24:19;;;;;;;19.10;18.40;;;4.80;99.90;;;;;;5017249;28;20617;-74
2022/11/21 08:26:45;;;;;;;18.38;17.67;;;4.80;99.90;;;;;;5034884;28;20470;-74
2022/11/21 08:29:14;;;;;;;18.08;17.38;;;4.80;99.90;;;;;;5021761;28;20021;-74
2022/11/21 08:31:40;;;;;;;20.77;19.77;;;4.90;99.90;;;;;;5034557;28;20025;-74
2022/11/21 08:34:06;;;;;;;18.42;17.73;;;4.90;99.90;;;;;;5016948;28;20061;-74
2022/11/21 08:36:31;;;;;;;18.13;17.27;;;4.80;99.90;;;;;;5034861;28;20060;-74
2022/11/21 08:38:57;;;;;;;19.08;18.27;;;4.80;99.90;;;;;;5034637;28;20020;-74
2022/11/21 08:44:07;;;;;;;22.10;21.30;;;5.00;99.90;;;;;;5034744;28;20036;-74
2022/11/21 08:46:36;;;;;;;23.42;22.52;;;5.00;99.90;;;;;;5034463;28;20026;-74
2022/11/21 08:49:02;;;;;;;21.67;20.77;;;4.90;99.90;;;;;;5016464;28;20047;-74
2022/11/21 08:51:28;;;;;;;14.30;13.70;;;4.90;99.90;;;;;;5016775;28;20116;-74
2022/11/21 08:53:53;;;;;;;17.17;16.58;;;4.90;99.90;;;;;;5021243;28;20148;-74
2022/11/21 08:56:19;;;;;;;19.92;19.17;;;4.90;99.90;;;;;;5034488;28;20482;-73
2022/11/21 08:58:44;;;;;;;18.52;17.83;;;4.90;99.90;;;;;;5034207;28;20097;-74
2022/11/21 09:01:10;;;;;;;19.73;19.02;;;4.90;99.90;;;;;;5034314;28;20053;-74
2022/11/21 09:03:35;;;;;;;18.33;17.63;;;4.90;99.90;;;;;;5020947;28;20097;-74
2022/11/21 09:06:01;;;;;;;16.77;16.17;;;4.80;99.90;;;;;;5034281;28;20108;-74
2022/11/21 09:08:28;;;;;;;18.20;17.50;;;4.70;99.90;;;;;;5016429;28;20080;-74
2022/11/21 09:10:54;;;;;;;18.88;18.17;;;4.70;99.90;;;;;;5016363;28;20033;-74
2022/11/21 09:13:19;;;;;;;21.48;20.67;;;4.80;99.90;;;;;;5016304;28;20022;-74
2022/11/21 09:18:29;;;;;;;18.50;17.80;;;5.00;99.90;;;;;;5033954;28;20072;-74
2022/11/21 09:20:54;;;;;;;21.02;20.23;;;5.10;99.90;;;;;;5021067;28;20018;-74
2022/11/21 09:23:20;;;;;;;20.30;19.58;;;5.10;99.90;;;;;;5026113;28;20114;-74
2022/11/21 09:25:45;;;;;;;18.73;18.02;;;5.20;99.90;;;;;;4997849;28;20036;-74
2022/11/21 09:28:13;;;;;;;20.58;19.80;;;5.20;99.90;;;;;;5025652;28;20066;-75
2022/11/21 09:30:39;;;;;;;23.83;22.83;;;5.30;99.90;;;;;;5027302;28;20076;-74
2022/11/21 09:33:08;;;;;;;20.17;19.48;;;5.40;99.90;;;;;;5004734;28;20490;-74
2022/11/21 09:35:34;;;;;;;19.17;18.48;;;5.50;99.90;;;;;;5033659;28;20036;-74
2022/11/21 09:37:59;;;;;;;20.38;19.65;;;5.60;99.90;;;;;;5033543;28;20025;-74
2022/11/21 09:40:26;;;;;;;21.23;19.13;;;5.60;99.90;;;;;;5033623;28;20060;-74
2022/11/21 09:43:06;;;;;;;21.00;20.20;;;5.80;99.90;;;;;;5033399;28;20623;-74
2022/11/21 09:45:36;;;;;;;19.38;18.67;;;5.90;99.90;;;;;;5015735;28;20129;-75
2022/11/21 09:48:07;;;;;;;19.95;19.25;;;5.90;99.90;;;;;;5033362;28;20033;-74
2022/11/21 09:50:52;;;;;;;21.00;20.10;;;5.90;99.90;;;;;;5033342;28;20055;-74
2022/11/21 09:53:29;;;;;;;25.13;24.13;;;6.10;99.90;;;;;;5033190;28;20044;-75
2022/11/21 09:55:59;;;;;;;19.90;19.20;;;5.90;99.90;;;;;;5033414;28;20032;-74
2022/11/21 09:58:37;;;;;;;20.40;19.70;;;5.80;99.90;;;;;;5015320;28;20025;-74
2022/11/21 10:01:03;;;;;;;19.85;19.15;;;5.80;99.90;;;;;;5033219;28;20018;-74
2022/11/21 10:03:38;;;;;;;23.50;22.60;;;5.80;99.90;;;;;;5033044;28;20031;-74
2022/11/21 10:06:23;;;;;;;23.30;22.30;;;5.80;99.90;;;;;;5033123;28;20033;-74
2022/11/21 10:08:51;;;;;;;23.33;22.45;;;5.80;99.90;;;;;;5013193;28;20120;-75
2022/11/21 10:15:11;;;;;;;19.55;18.85;;;6.00;99.90;;;;;;5012337;28;20131;-74
2022/11/21 10:17:53;;;;;;;20.38;19.65;;;6.00;99.90;;;;;;5032812;28;20048;-74
2022/11/21 10:20:43;;;;;;;16.80;16.20;;;6.00;99.90;;;;;;5032840;28;20064;-74
2022/11/21 10:23:14;;;;;;;18.42;17.73;;;5.90;99.90;;;;;;5032876;28;20052;-74
2022/11/21 10:25:48;;;;;;;17.25;16.55;;;6.10;99.90;;;;;;5032796;28;20100;-74
2022/11/21 10:28:21;;;;;;;16.70;16.10;;;6.10;99.90;;;;;;5032658;28;20025;-74
2022/11/21 10:30:50;;;;;;;16.05;15.45;;;6.10;99.90;;;;;;5032974;28;20372;-74
2022/11/21 10:33:33;;;;;;;20.58;19.80;;;6.20;99.90;;;;;;5032520;28;20021;-74
2022/11/21 10:36:06;;;;;;;24.85;23.55;;;6.20;99.90;;;;;;5032357;28;20022;-74
2022/11/21 10:38:40;;;;;;;13.07;12.57;;;6.30;99.90;;;;;;5032151;28;20138;-74
2022/11/21 10:41:24;;;;;;;18.45;17.75;;;6.30;99.90;;;;;;5018867;28;20095;-74
2022/11/21 10:46:59;;;;;;;16.55;15.95;;;6.40;99.90;;;;;;5032231;28;20082;-74
2022/11/21 10:49:28;;;;;;;12.52;12.02;;;6.40;99.90;;;;;;5032217;28;20025;-74
2022/11/21 10:52:15;;;;;;;13.55;13.05;;;6.40;99.90;;;;;;5032150;28;20040;-74
2022/11/21 10:55:02;;;;;;;11.50;11.10;;;6.50;99.90;;;;;;5002779;28;20033;-74
2022/11/21 10:57:32;;;;;;;12.88;12.38;;;6.50;99.90;;;;;;5002651;28;20044;-74
2022/11/21 11:00:11;;;;;;;14.10;13.60;;;6.40;99.90;;;;;;5014302;28;20017;-74
2022/11/21 11:02:37;;;;;;;8.25;7.95;;;6.60;99.90;;;;;;5032092;28;20390;-74
2022/11/21 11:05:19;;;;;;;6.00;5.70;;;6.70;99.90;;;;;;5018913;28;20029;-74
2022/11/21 11:08:01;;;;;;;7.25;6.95;;;6.80;99.90;;;;;;5019095;28;20025;-74
2022/11/21 11:10:28;;;;;;;4.70;4.55;;;6.80;99.90;;;;;;5022973;28;20030;-74
2022/11/21 11:15:53;;;;;;;5.07;4.90;;;6.70;99.90;;;;;;5021116;28;20048;-74
2022/11/21 11:18:22;;;;;;;5.35;5.15;;;6.70;99.90;;;;;;5031788;28;20060;-74
2022/11/21 11:20:48;;;;;;;3.40;3.30;;;6.60;99.90;;;;;;5018729;28;20025;-74
2022/11/21 11:23:21;;;;;;;3.22;3.13;;;6.60;99.90;;;;;;5024805;28;20038;-74
2022/11/21 11:25:51;;;;;;;3.97;3.10;;;6.60;99.90;;;;;;5026860;28;20053;-74
2022/11/21 11:28:22;;;;;;;3.13;3.03;;;6.70;99.90;;;;;;5031663;28;20108;-74
2022/11/21 11:30:50;;;;;;;3.47;3.38;;;7.00;99.90;;;;;;5031582;28;20138;-74
2022/11/21 11:33:37;;;;;;;2.50;2.40;;;7.20;99.90;;;;;;5031660;28;20083;-73
2022/11/21 11:36:12;;;;;;;5.00;4.55;;;7.10;99.90;;;;;;5013918;28;20029;-75
2022/11/21 11:38:38;;;;;;;1.50;1.50;;;7.10;99.90;;;;;;5025638;28;20076;-74
2022/11/21 11:47:29;;;;;;;2.85;1.83;;;7.20;99.90;;;;;;5013894;28;20025;-73
2022/11/21 11:47:31;;;;;;;1.30;1.30;;;7.10;99.90;;;;;;5031360;28;20032;-74
2022/11/21 11:50:10;;;;;;;1.77;1.70;;;7.20;99.90;;;;;;5013817;28;20028;-74
2022/11/21 11:53:02;;;;;;;5.47;1.55;;;7.10;99.90;;;;;;5016953;28;20048;-74
2022/11/21 11:55:52;;;;;;;1.75;1.65;;;7.00;99.90;;;;;;5022301;28;20021;-74
2022/11/21 11:58:25;;;;;;;3.47;3.28;;;7.10;99.90;;;;;;5007548;28;20442;-74
2022/11/21 12:01:02;;;;;;;1.10;1.10;;;7.10;99.90;;;;;;5025458;28;20028;-74
2022/11/21 12:03:39;;;;;;;2.97;1.25;;;7.00;99.90;;;;;;5035535;28;20044;-74
2022/11/21 12:06:19;;;;;;;0.90;0.90;;;7.00;99.90;;;;;;5035443;28;20471;-74
2022/11/21 12:09:11;;;;;;;1.27;1.27;;;7.00;99.90;;;;;;5012556;28;20065;-74
2022/11/21 12:12:08;;;;;;;1.08;1.08;;;7.00;99.90;;;;;;5022262;28;20115;-74
2022/11/21 12:15:47;;;;;;;1.20;1.20;;;6.90;99.90;;;;;;5039243;28;20022;-74
2022/11/21 12:18:10;;;;;;;;;;;6.80;99.90;;;;;;5035129;28;20109;-74
2022/11/21 12:20:47;;;;;;;0.80;0.80;;;6.80;99.90;;;;;;5017208;28;20373;-73
2022/11/21 12:23:14;;;;;;;0.68;0.68;;;6.80;99.90;;;;;;5021937;28;20025;-74
2022/11/21 12:26:03;;;;;;;1.00;1.00;;;6.60;99.90;;;;;;5035037;28;20507;-75
2022/11/21 12:29:02;;;;;;;1.00;1.00;;;6.40;99.90;;;;;;5024986;28;20076;-74
2022/11/21 12:31:58;;;;;;;1.13;1.13;;;6.30;99.90;;;;;;5022456;28;20037;-75
2022/11/21 12:34:33;;;;;;;1.77;1.48;;;6.10;99.90;;;;;;5034786;28;20045;-74
2022/11/21 12:37:21;;;;;;;0.70;0.70;;;6.00;99.90;;;;;;5016733;28;20023;-74
2022/11/21 12:39:59;;;;;;;0.90;0.90;;;5.90;99.90;;;;;;5034000;28;20045;-74
2022/11/21 12:42:48;;;;;;;1.10;1.10;;;6.00;99.90;;;;;;5034532;28;20071;-74
2022/11/21 12:45:27;;;;;;;1.48;1.38;;;6.00;99.90;;;;;;5017041;28;20438;-74
2022/11/21 12:54:45;;;;;;;0.75;0.75;;;6.00;99.90;;;;;;5042288;28;20132;-73
2022/11/21 12:57:11;;;;;;;0.80;0.80;;;5.90;99.90;;;;;;5033691;28;20112;-74
2022/11/21 13:00:03;;;;;;;0.95;0.95;;;6.10;99.90;;;;;;5033005;28;20494;-74
2022/11/21 13:02:56;;;;;;;0.80;0.80;;;6.30;99.90;;;;;;5039867;28;20060;-74
2022/11/21 13:05:35;;;;;;;0.90;0.90;;;6.40;99.90;;;;;;5034150;28;20036;-73
2022/11/21 13:08:21;;;;;;;0.85;0.85;;;6.50;99.90;;;;;;5033991;28;20025;-74
2022/11/21 13:13:55;;;;;;;1.00;1.00;;;6.40;99.90;;;;;;5043987;28;20092;-74
2022/11/21 13:16:38;;;;;;;0.90;0.90;;;6.20;99.90;;;;;;5041916;28;20018;-74
2022/11/21 13:19:44;;;;;;;0.90;0.90;;;6.10;99.90;;;;;;5029029;28;20029;-73
2022/11/21 13:22:34;;;;;;;1.10;1.10;;;6.10;99.90;;;;;;5033645;28;20033;-74
2022/11/21 13:25:11;;;;;;;1.10;1.10;;;6.10;99.90;;;;;;5021323;28;20056;-72
2022/11/21 13:27:41;;;;;;;1.42;1.42;;;6.10;99.90;;;;;;5032532;28;20026;-74
2022/11/21 13:30:06;;;;;;;1.25;1.25;;;6.20;99.90;;;;;;5032212;28;20039;-74